sensor_id;sensor_type;location;lat;lon;timestamp;P1;durP1;ratioP1;P2;durP2;ratioP2
22363;SDS011;11349;53.412;-1.328;2022-10-26T00:01:29;14.25;;;3.55;;
22363;SDS011;11349;53.412;-1.328;2022-10-26T00:03:55;7.78;;;2.70;;
22363;SDS011;11349;53.412;-1.328;2022-10-26T00:06:22;8.10;;;3.03;;
22363;SDS011;11349;53.412;-1.328;2022-10-26T00:08:49;10.88;;;3.35;;
22363;SDS011;11349;53.412;-1.328;2022-10-26T00:11:16;10.95;;;3.17;;
22363;SDS011;11349;53.412;-1.328;2022-10-26T00:13:43;8.30;;;3.08;;
22363;SDS011;11349;53.412;-1.328;2022-10-26T00:16:13;9.75;;;3.25;;
22363;SDS011;11349;53.412;-1.328;2022-10-26T00:18:41;14.10;;;3.53;;
22363;SDS011;11349;53.412;-1.328;2022-10-26T00:21:08;15.07;;;3.75;;
22363;SDS011;11349;53.412;-1.328;2022-10-26T00:23:34;9.93;;;3.40;;
22363;SDS011;11349;53.412;-1.328;2022-10-26T00:26:00;12.15;;;3.97;;
22363;SDS011;11349;53.412;-1.328;2022-10-26T00:28:26;10.52;;;4.07;;
22363;SDS011;11349;53.412;-1.328;2022-10-26T00:30:52;11.70;;;4.22;;
22363;SDS011;11349;53.412;-1.328;2022-10-26T00:33:18;12.93;;;4.32;;
22363;SDS011;11349;53.412;-1.328;2022-10-26T00:35:47;11.85;;;4.63;;
22363;SDS011;11349;53.412;-1.328;2022-10-26T00:38:17;11.82;;;4.45;;
22363;SDS011;11349;53.412;-1.328;2022-10-26T00:40:42;13.25;;;5.18;;
22363;SDS011;11349;53.412;-1.328;2022-10-26T00:43:12;15.90;;;5.72;;
22363;SDS011;11349;53.412;-1.328;2022-10-26T00:45:59;12.32;;;5.45;;
22363;SDS011;11349;53.412;-1.328;2022-10-26T00:48:27;17.58;;;6.55;;
22363;SDS011;11349;53.412;-1.328;2022-10-26T00:50:58;17.67;;;5.85;;
22363;SDS011;11349;53.412;-1.328;2022-10-26T00:53:27;12.10;;;5.00;;
22363;SDS011;11349;53.412;-1.328;2022-10-26T00:55:54;13.57;;;5.40;;
22363;SDS011;11349;53.412;-1.328;2022-10-26T00:58:20;14.85;;;4.95;;
22363;SDS011;11349;53.412;-1.328;2022-10-26T01:00:48;14.82;;;5.18;;
22363;SDS011;11349;53.412;-1.328;2022-10-26T01:03:15;11.48;;;4.82;;
22363;SDS011;11349;53.412;-1.328;2022-10-26T01:05:42;14.35;;;4.47;;
22363;SDS011;11349;53.412;-1.328;2022-10-26T01:08:10;14.80;;;6.07;;
22363;SDS011;11349;53.412;-1.328;2022-10-26T01:10:37;11.93;;;6.32;;
22363;SDS011;11349;53.412;-1.328;2022-10-26T01:13:05;14.48;;;7.40;;
22363;SDS011;11349;53.412;-1.328;2022-10-26T01:15:55;16.38;;;8.18;;
22363;SDS011;11349;53.412;-1.328;2022-10-26T01:21:38;18.33;;;6.85;;
22363;SDS011;11349;53.412;-1.328;2022-10-26T01:31:37;10.75;;;4.10;;
22363;SDS011;11349;53.412;-1.328;2022-10-26T01:34:21;10.80;;;4.85;;
22363;SDS011;11349;53.412;-1.328;2022-10-26T01:37:12;12.10;;;4.75;;
22363;SDS011;11349;53.412;-1.328;2022-10-26T01:39:52;11.52;;;3.92;;
22363;SDS011;11349;53.412;-1.328;2022-10-26T01:42:24;17.45;;;5.13;;
22363;SDS011;11349;53.412;-1.328;2022-10-26T01:44:52;12.27;;;5.22;;
22363;SDS011;11349;53.412;-1.328;2022-10-26T01:47:23;14.75;;;4.57;;
22363;SDS011;11349;53.412;-1.328;2022-10-26T01:49:53;9.88;;;3.90;;
22363;SDS011;11349;53.412;-1.328;2022-10-26T01:52:22;10.20;;;3.63;;
22363;SDS011;11349;53.412;-1.328;2022-10-26T01:54:48;12.02;;;3.97;;
22363;SDS011;11349;53.412;-1.328;2022-10-26T01:57:15;13.00;;;4.18;;
22363;SDS011;11349;53.412;-1.328;2022-10-26T02:05:32;12.93;;;3.83;;
22363;SDS011;11349;53.412;-1.328;2022-10-26T02:11:40;11.70;;;4.28;;
22363;SDS011;11349;53.412;-1.328;2022-10-26T02:16:53;10.82;;;3.72;;
22363;SDS011;11349;53.412;-1.328;2022-10-26T02:22:09;8.98;;;4.40;;
22363;SDS011;11349;53.412;-1.328;2022-10-26T02:24:50;12.38;;;4.63;;
22363;SDS011;11349;53.412;-1.328;2022-10-26T02:27:21;11.48;;;4.20;;
22363;SDS011;11349;53.412;-1.328;2022-10-26T02:29:53;13.25;;;4.75;;
22363;SDS011;11349;53.412;-1.328;2022-10-26T02:32:22;12.73;;;5.00;;
22363;SDS011;11349;53.412;-1.328;2022-10-26T02:34:52;13.65;;;4.50;;
22363;SDS011;11349;53.412;-1.328;2022-10-26T02:37:21;14.52;;;4.80;;
22363;SDS011;11349;53.412;-1.328;2022-10-26T02:39:48;13.95;;;4.75;;
22363;SDS011;11349;53.412;-1.328;2022-10-26T02:42:16;13.50;;;5.05;;
22363;SDS011;11349;53.412;-1.328;2022-10-26T02:44:50;16.63;;;5.50;;
22363;SDS011;11349;53.412;-1.328;2022-10-26T02:47:22;15.55;;;5.72;;
22363;SDS011;11349;53.412;-1.328;2022-10-26T02:49:50;15.45;;;4.90;;
22363;SDS011;11349;53.412;-1.328;2022-10-26T02:52:41;8.95;;;5.05;;
22363;SDS011;11349;53.412;-1.328;2022-10-26T02:55:20;9.57;;;5.05;;
22363;SDS011;11349;53.412;-1.328;2022-10-26T02:58:00;8.55;;;4.80;;
22363;SDS011;11349;53.412;-1.328;2022-10-26T03:00:28;14.48;;;5.00;;
22363;SDS011;11349;53.412;-1.328;2022-10-26T03:02:56;11.77;;;4.75;;
22363;SDS011;11349;53.412;-1.328;2022-10-26T03:05:24;12.27;;;4.68;;
22363;SDS011;11349;53.412;-1.328;2022-10-26T03:07:51;10.77;;;4.53;;
22363;SDS011;11349;53.412;-1.328;2022-10-26T03:10:17;12.73;;;3.80;;
22363;SDS011;11349;53.412;-1.328;2022-10-26T03:12:43;9.25;;;4.28;;
22363;SDS011;11349;53.412;-1.328;2022-10-26T03:15:09;13.00;;;4.35;;
22363;SDS011;11349;53.412;-1.328;2022-10-26T03:17:35;11.05;;;4.20;;
22363;SDS011;11349;53.412;-1.328;2022-10-26T03:20:00;11.93;;;4.32;;
22363;SDS011;11349;53.412;-1.328;2022-10-26T03:22:26;10.85;;;3.90;;
22363;SDS011;11349;53.412;-1.328;2022-10-26T03:24:52;9.45;;;3.90;;
22363;SDS011;11349;53.412;-1.328;2022-10-26T03:27:17;13.45;;;4.60;;
22363;SDS011;11349;53.412;-1.328;2022-10-26T03:29:43;12.98;;;4.70;;
22363;SDS011;11349;53.412;-1.328;2022-10-26T03:32:09;9.35;;;4.20;;
22363;SDS011;11349;53.412;-1.328;2022-10-26T03:34:34;12.27;;;3.42;;
22363;SDS011;11349;53.412;-1.328;2022-10-26T03:37:00;10.68;;;3.88;;
22363;SDS011;11349;53.412;-1.328;2022-10-26T03:39:26;10.60;;;2.80;;
22363;SDS011;11349;53.412;-1.328;2022-10-26T03:41:51;9.52;;;3.03;;
22363;SDS011;11349;53.412;-1.328;2022-10-26T03:44:17;13.35;;;3.17;;
22363;SDS011;11349;53.412;-1.328;2022-10-26T03:46:43;9.20;;;2.78;;
22363;SDS011;11349;53.412;-1.328;2022-10-26T03:49:08;7.95;;;2.60;;
22363;SDS011;11349;53.412;-1.328;2022-10-26T03:51:34;10.10;;;3.10;;
22363;SDS011;11349;53.412;-1.328;2022-10-26T03:53:59;9.10;;;2.63;;
22363;SDS011;11349;53.412;-1.328;2022-10-26T03:56:25;7.88;;;2.40;;
22363;SDS011;11349;53.412;-1.328;2022-10-26T03:58:51;8.25;;;2.15;;
22363;SDS011;11349;53.412;-1.328;2022-10-26T04:01:17;10.93;;;2.60;;
22363;SDS011;11349;53.412;-1.328;2022-10-26T04:03:42;10.20;;;3.33;;
22363;SDS011;11349;53.412;-1.328;2022-10-26T04:06:08;12.80;;;2.85;;
22363;SDS011;11349;53.412;-1.328;2022-10-26T04:08:34;13.90;;;3.20;;
22363;SDS011;11349;53.412;-1.328;2022-10-26T04:10:59;12.30;;;3.08;;
22363;SDS011;11349;53.412;-1.328;2022-10-26T04:13:25;12.15;;;3.35;;
22363;SDS011;11349;53.412;-1.328;2022-10-26T04:15:51;7.90;;;2.88;;
22363;SDS011;11349;53.412;-1.328;2022-10-26T04:18:17;12.30;;;3.28;;
22363;SDS011;11349;53.412;-1.328;2022-10-26T04:20:42;10.13;;;3.00;;
22363;SDS011;11349;53.412;-1.328;2022-10-26T04:23:14;7.93;;;2.90;;
22363;SDS011;11349;53.412;-1.328;2022-10-26T04:25:42;7.38;;;3.30;;
22363;SDS011;11349;53.412;-1.328;2022-10-26T04:28:09;11.82;;;4.20;;
22363;SDS011;11349;53.412;-1.328;2022-10-26T04:30:35;14.57;;;3.60;;
22363;SDS011;11349;53.412;-1.328;2022-10-26T04:33:02;10.70;;;3.17;;
22363;SDS011;11349;53.412;-1.328;2022-10-26T04:35:28;10.85;;;3.40;;
22363;SDS011;11349;53.412;-1.328;2022-10-26T04:37:58;11.35;;;3.08;;
22363;SDS011;11349;53.412;-1.328;2022-10-26T04:40:29;10.30;;;3.10;;
22363;SDS011;11349;53.412;-1.328;2022-10-26T04:42:55;10.18;;;3.05;;
22363;SDS011;11349;53.412;-1.328;2022-10-26T04:45:22;11.32;;;3.72;;
22363;SDS011;11349;53.412;-1.328;2022-10-26T04:47:57;11.55;;;3.45;;
22363;SDS011;11349;53.412;-1.328;2022-10-26T04:50:27;13.43;;;3.47;;
22363;SDS011;11349;53.412;-1.328;2022-10-26T04:52:53;13.88;;;3.60;;
22363;SDS011;11349;53.412;-1.328;2022-10-26T04:55:18;10.02;;;3.22;;
22363;SDS011;11349;53.412;-1.328;2022-10-26T04:57:44;11.95;;;2.72;;
22363;SDS011;11349;53.412;-1.328;2022-10-26T05:00:10;7.47;;;3.15;;
22363;SDS011;11349;53.412;-1.328;2022-10-26T05:02:36;12.52;;;3.40;;
22363;SDS011;11349;53.412;-1.328;2022-10-26T05:05:02;14.85;;;3.53;;
22363;SDS011;11349;53.412;-1.328;2022-10-26T05:07:28;14.15;;;4.15;;
22363;SDS011;11349;53.412;-1.328;2022-10-26T05:09:53;10.75;;;3.15;;
22363;SDS011;11349;53.412;-1.328;2022-10-26T05:12:19;9.93;;;2.90;;
22363;SDS011;11349;53.412;-1.328;2022-10-26T05:14:45;9.85;;;3.45;;
22363;SDS011;11349;53.412;-1.328;2022-10-26T05:17:10;12.77;;;4.13;;
22363;SDS011;11349;53.412;-1.328;2022-10-26T05:19:36;15.57;;;3.78;;
22363;SDS011;11349;53.412;-1.328;2022-10-26T05:22:02;8.60;;;3.92;;
22363;SDS011;11349;53.412;-1.328;2022-10-26T05:24:27;12.57;;;3.20;;
22363;SDS011;11349;53.412;-1.328;2022-10-26T05:26:53;8.60;;;2.67;;
22363;SDS011;11349;53.412;-1.328;2022-10-26T05:29:19;12.07;;;3.42;;
22363;SDS011;11349;53.412;-1.328;2022-10-26T05:31:44;11.48;;;3.00;;
22363;SDS011;11349;53.412;-1.328;2022-10-26T05:34:10;9.93;;;3.00;;
22363;SDS011;11349;53.412;-1.328;2022-10-26T05:36:36;9.98;;;2.58;;
22363;SDS011;11349;53.412;-1.328;2022-10-26T05:39:02;12.73;;;2.72;;
22363;SDS011;11349;53.412;-1.328;2022-10-26T05:41:27;6.22;;;2.35;;
22363;SDS011;11349;53.412;-1.328;2022-10-26T05:43:53;8.88;;;2.05;;
22363;SDS011;11349;53.412;-1.328;2022-10-26T05:46:19;8.98;;;2.05;;
22363;SDS011;11349;53.412;-1.328;2022-10-26T05:48:44;5.88;;;1.90;;
22363;SDS011;11349;53.412;-1.328;2022-10-26T05:51:10;9.20;;;1.88;;
22363;SDS011;11349;53.412;-1.328;2022-10-26T05:53:36;8.20;;;2.28;;
22363;SDS011;11349;53.412;-1.328;2022-10-26T05:56:07;12.10;;;2.90;;
22363;SDS011;11349;53.412;-1.328;2022-10-26T05:58:42;6.03;;;1.67;;
22363;SDS011;11349;53.412;-1.328;2022-10-26T06:06:14;9.75;;;2.00;;
22363;SDS011;11349;53.412;-1.328;2022-10-26T06:08:40;8.05;;;2.10;;
22363;SDS011;11349;53.412;-1.328;2022-10-26T06:11:07;8.63;;;2.08;;
22363;SDS011;11349;53.412;-1.328;2022-10-26T06:13:33;6.60;;;1.75;;
22363;SDS011;11349;53.412;-1.328;2022-10-26T06:21:56;7.65;;;2.33;;
22363;SDS011;11349;53.412;-1.328;2022-10-26T06:30:01;9.70;;;1.52;;
22363;SDS011;11349;53.412;-1.328;2022-10-26T06:32:31;7.05;;;3.00;;
22363;SDS011;11349;53.412;-1.328;2022-10-26T06:35:02;8.32;;;2.35;;
22363;SDS011;11349;53.412;-1.328;2022-10-26T06:37:41;6.80;;;2.63;;
22363;SDS011;11349;53.412;-1.328;2022-10-26T06:40:09;8.05;;;1.92;;
22363;SDS011;11349;53.412;-1.328;2022-10-26T06:42:37;7.30;;;1.73;;
22363;SDS011;11349;53.412;-1.328;2022-10-26T06:45:03;8.88;;;2.08;;
22363;SDS011;11349;53.412;-1.328;2022-10-26T06:52:53;7.05;;;1.73;;
22363;SDS011;11349;53.412;-1.328;2022-10-26T06:55:30;8.15;;;2.35;;
22363;SDS011;11349;53.412;-1.328;2022-10-26T06:58:07;9.90;;;2.67;;
22363;SDS011;11349;53.412;-1.328;2022-10-26T07:00:43;7.75;;;1.83;;
22363;SDS011;11349;53.412;-1.328;2022-10-26T07:03:11;6.22;;;1.80;;
22363;SDS011;11349;53.412;-1.328;2022-10-26T07:05:37;8.43;;;2.30;;
22363;SDS011;11349;53.412;-1.328;2022-10-26T07:08:03;7.13;;;2.00;;
22363;SDS011;11349;53.412;-1.328;2022-10-26T07:10:29;9.25;;;1.95;;
22363;SDS011;11349;53.412;-1.328;2022-10-26T07:12:55;5.68;;;1.80;;
22363;SDS011;11349;53.412;-1.328;2022-10-26T07:15:20;11.90;;;2.05;;
22363;SDS011;11349;53.412;-1.328;2022-10-26T07:17:47;9.38;;;2.03;;
22363;SDS011;11349;53.412;-1.328;2022-10-26T07:20:14;5.80;;;1.77;;
22363;SDS011;11349;53.412;-1.328;2022-10-26T07:22:41;5.93;;;1.85;;
22363;SDS011;11349;53.412;-1.328;2022-10-26T07:25:07;7.93;;;1.73;;
22363;SDS011;11349;53.412;-1.328;2022-10-26T07:27:33;6.40;;;2.58;;
22363;SDS011;11349;53.412;-1.328;2022-10-26T07:29:59;6.15;;;2.08;;
22363;SDS011;11349;53.412;-1.328;2022-10-26T07:32:25;6.93;;;1.85;;
22363;SDS011;11349;53.412;-1.328;2022-10-26T07:34:50;8.30;;;2.58;;
22363;SDS011;11349;53.412;-1.328;2022-10-26T07:37:16;12.10;;;2.95;;
22363;SDS011;11349;53.412;-1.328;2022-10-26T07:39:42;8.32;;;2.42;;
22363;SDS011;11349;53.412;-1.328;2022-10-26T07:42:08;7.88;;;1.60;;
22363;SDS011;11349;53.412;-1.328;2022-10-26T07:44:34;7.38;;;2.00;;
22363;SDS011;11349;53.412;-1.328;2022-10-26T07:46:59;8.65;;;2.08;;
22363;SDS011;11349;53.412;-1.328;2022-10-26T07:49:25;10.70;;;2.30;;
22363;SDS011;11349;53.412;-1.328;2022-10-26T07:51:51;7.82;;;1.95;;
22363;SDS011;11349;53.412;-1.328;2022-10-26T07:54:16;10.35;;;1.90;;
22363;SDS011;11349;53.412;-1.328;2022-10-26T07:56:42;6.53;;;1.40;;
22363;SDS011;11349;53.412;-1.328;2022-10-26T07:59:10;10.45;;;1.58;;
22363;SDS011;11349;53.412;-1.328;2022-10-26T08:01:36;7.20;;;1.70;;
22363;SDS011;11349;53.412;-1.328;2022-10-26T08:04:02;8.93;;;2.22;;
22363;SDS011;11349;53.412;-1.328;2022-10-26T08:06:28;11.70;;;2.10;;
22363;SDS011;11349;53.412;-1.328;2022-10-26T08:08:53;11.15;;;2.58;;
22363;SDS011;11349;53.412;-1.328;2022-10-26T08:11:19;8.65;;;1.80;;
22363;SDS011;11349;53.412;-1.328;2022-10-26T08:13:45;10.55;;;1.73;;
22363;SDS011;11349;53.412;-1.328;2022-10-26T08:16:11;8.45;;;2.05;;
22363;SDS011;11349;53.412;-1.328;2022-10-26T08:18:36;7.20;;;1.60;;
22363;SDS011;11349;53.412;-1.328;2022-10-26T08:21:03;4.95;;;1.50;;
22363;SDS011;11349;53.412;-1.328;2022-10-26T08:23:31;15.40;;;2.55;;
22363;SDS011;11349;53.412;-1.328;2022-10-26T08:25:58;7.68;;;2.00;;
22363;SDS011;11349;53.412;-1.328;2022-10-26T08:28:24;6.78;;;1.63;;
22363;SDS011;11349;53.412;-1.328;2022-10-26T08:30:51;8.35;;;1.90;;
22363;SDS011;11349;53.412;-1.328;2022-10-26T08:33:16;10.25;;;1.80;;
22363;SDS011;11349;53.412;-1.328;2022-10-26T08:35:42;12.65;;;2.30;;
22363;SDS011;11349;53.412;-1.328;2022-10-26T08:38:08;8.82;;;2.00;;
22363;SDS011;11349;53.412;-1.328;2022-10-26T08:46:10;7.72;;;1.73;;
22363;SDS011;11349;53.412;-1.328;2022-10-26T08:48:45;14.43;;;2.95;;
22363;SDS011;11349;53.412;-1.328;2022-10-26T08:51:22;11.32;;;2.30;;
22363;SDS011;11349;53.412;-1.328;2022-10-26T08:54:03;10.68;;;1.67;;
22363;SDS011;11349;53.412;-1.328;2022-10-26T08:56:45;7.57;;;2.15;;
22363;SDS011;11349;53.412;-1.328;2022-10-26T08:59:17;8.98;;;2.20;;
22363;SDS011;11349;53.412;-1.328;2022-10-26T09:02:15;7.85;;;1.98;;
22363;SDS011;11349;53.412;-1.328;2022-10-26T09:04:41;12.55;;;2.35;;
22363;SDS011;11349;53.412;-1.328;2022-10-26T09:07:21;10.32;;;2.33;;
22363;SDS011;11349;53.412;-1.328;2022-10-26T09:10:28;12.77;;;3.28;;
22363;SDS011;11349;53.412;-1.328;2022-10-26T09:13:08;10.02;;;2.65;;
22363;SDS011;11349;53.412;-1.328;2022-10-26T09:16:05;10.65;;;2.22;;
22363;SDS011;11349;53.412;-1.328;2022-10-26T09:18:52;11.48;;;2.55;;
22363;SDS011;11349;53.412;-1.328;2022-10-26T09:24:32;7.72;;;1.83;;
22363;SDS011;11349;53.412;-1.328;2022-10-26T09:27:06;6.70;;;1.52;;
22363;SDS011;11349;53.412;-1.328;2022-10-26T09:29:41;10.85;;;1.90;;
22363;SDS011;11349;53.412;-1.328;2022-10-26T09:32:16;8.40;;;2.28;;
22363;SDS011;11349;53.412;-1.328;2022-10-26T09:35:19;10.30;;;2.33;;
22363;SDS011;11349;53.412;-1.328;2022-10-26T09:37:50;6.05;;;1.23;;
22363;SDS011;11349;53.412;-1.328;2022-10-26T09:43:17;10.02;;;2.45;;
22363;SDS011;11349;53.412;-1.328;2022-10-26T09:45:52;9.77;;;2.47;;
22363;SDS011;11349;53.412;-1.328;2022-10-26T09:48:25;7.97;;;1.75;;
22363;SDS011;11349;53.412;-1.328;2022-10-26T09:50:57;13.23;;;2.22;;
22363;SDS011;11349;53.412;-1.328;2022-10-26T09:53:24;8.82;;;1.77;;
22363;SDS011;11349;53.412;-1.328;2022-10-26T10:06:40;5.35;;;1.23;;
22363;SDS011;11349;53.412;-1.328;2022-10-26T10:09:11;6.57;;;1.50;;
22363;SDS011;11349;53.412;-1.328;2022-10-26T10:14:20;7.63;;;1.23;;
22363;SDS011;11349;53.412;-1.328;2022-10-26T10:16:54;9.18;;;1.40;;
22363;SDS011;11349;53.412;-1.328;2022-10-26T10:19:26;4.03;;;1.20;;
22363;SDS011;11349;53.412;-1.328;2022-10-26T10:22:00;6.85;;;1.33;;
22363;SDS011;11349;53.412;-1.328;2022-10-26T10:24:39;8.73;;;1.55;;
22363;SDS011;11349;53.412;-1.328;2022-10-26T10:29:44;5.85;;;1.30;;
22363;SDS011;11349;53.412;-1.328;2022-10-26T10:32:27;7.75;;;1.73;;
22363;SDS011;11349;53.412;-1.328;2022-10-26T10:35:00;6.55;;;1.55;;
22363;SDS011;11349;53.412;-1.328;2022-10-26T10:40:05;6.45;;;1.30;;
22363;SDS011;11349;53.412;-1.328;2022-10-26T10:42:45;6.35;;;1.35;;
22363;SDS011;11349;53.412;-1.328;2022-10-26T10:47:59;8.63;;;1.63;;
22363;SDS011;11349;53.412;-1.328;2022-10-26T10:50:27;5.80;;;1.08;;
22363;SDS011;11349;53.412;-1.328;2022-10-26T11:01:37;4.68;;;1.13;;
22363;SDS011;11349;53.412;-1.328;2022-10-26T11:07:15;6.72;;;1.45;;
22363;SDS011;11349;53.412;-1.328;2022-10-26T11:09:43;5.25;;;1.38;;
22363;SDS011;11349;53.412;-1.328;2022-10-26T11:12:20;4.95;;;1.25;;
22363;SDS011;11349;53.412;-1.328;2022-10-26T11:14:51;3.17;;;0.80;;
22363;SDS011;11349;53.412;-1.328;2022-10-26T11:17:30;9.65;;;2.50;;
22363;SDS011;11349;53.412;-1.328;2022-10-26T11:20:03;7.85;;;1.42;;
22363;SDS011;11349;53.412;-1.328;2022-10-26T11:22:37;5.63;;;1.38;;
22363;SDS011;11349;53.412;-1.328;2022-10-26T11:25:12;3.92;;;1.25;;
22363;SDS011;11349;53.412;-1.328;2022-10-26T11:28:00;11.48;;;2.28;;
22363;SDS011;11349;53.412;-1.328;2022-10-26T11:30:52;7.38;;;2.15;;
22363;SDS011;11349;53.412;-1.328;2022-10-26T11:33:24;6.03;;;1.15;;
22363;SDS011;11349;53.412;-1.328;2022-10-26T11:41:12;4.18;;;1.08;;
22363;SDS011;11349;53.412;-1.328;2022-10-26T11:44:12;4.47;;;1.15;;
22363;SDS011;11349;53.412;-1.328;2022-10-26T11:46:52;4.47;;;1.08;;
22363;SDS011;11349;53.412;-1.328;2022-10-26T11:49:42;8.55;;;1.50;;
22363;SDS011;11349;53.412;-1.328;2022-10-26T11:54:54;5.32;;;1.42;;
22363;SDS011;11349;53.412;-1.328;2022-10-26T11:57:22;5.78;;;1.50;;
22363;SDS011;11349;53.412;-1.328;2022-10-26T11:59:57;9.40;;;2.75;;
22363;SDS011;11349;53.412;-1.328;2022-10-26T12:02:35;7.82;;;1.58;;
22363;SDS011;11349;53.412;-1.328;2022-10-26T12:05:06;7.75;;;1.50;;
22363;SDS011;11349;53.412;-1.328;2022-10-26T12:07:39;9.68;;;1.58;;
22363;SDS011;11349;53.412;-1.328;2022-10-26T12:10:20;9.98;;;2.13;;
22363;SDS011;11349;53.412;-1.328;2022-10-26T12:13:20;6.75;;;1.73;;
22363;SDS011;11349;53.412;-1.328;2022-10-26T12:21:55;8.10;;;1.50;;
22363;SDS011;11349;53.412;-1.328;2022-10-26T12:26:50;10.68;;;1.92;;
22363;SDS011;11349;53.412;-1.328;2022-10-26T12:29:26;10.23;;;2.50;;
22363;SDS011;11349;53.412;-1.328;2022-10-26T12:32:03;7.80;;;1.60;;
22363;SDS011;11349;53.412;-1.328;2022-10-26T12:37:31;6.47;;;1.27;;
22363;SDS011;11349;53.412;-1.328;2022-10-26T12:40:36;10.02;;;1.52;;
22363;SDS011;11349;53.412;-1.328;2022-10-26T12:45:38;9.18;;;1.77;;
22363;SDS011;11349;53.412;-1.328;2022-10-26T12:48:10;7.35;;;1.40;;
22363;SDS011;11349;53.412;-1.328;2022-10-26T12:50:51;10.00;;;2.30;;
22363;SDS011;11349;53.412;-1.328;2022-10-26T12:53:17;7.15;;;1.35;;
22363;SDS011;11349;53.412;-1.328;2022-10-26T12:58:23;7.35;;;1.40;;
22363;SDS011;11349;53.412;-1.328;2022-10-26T13:08:41;7.93;;;1.48;;
22363;SDS011;11349;53.412;-1.328;2022-10-26T13:11:32;6.57;;;1.50;;
22363;SDS011;11349;53.412;-1.328;2022-10-26T13:14:06;9.70;;;1.83;;
22363;SDS011;11349;53.412;-1.328;2022-10-26T13:16:42;7.80;;;1.90;;
22363;SDS011;11349;53.412;-1.328;2022-10-26T13:19:21;6.55;;;1.65;;
22363;SDS011;11349;53.412;-1.328;2022-10-26T13:21:51;11.77;;;2.13;;
22363;SDS011;11349;53.412;-1.328;2022-10-26T13:24:19;7.20;;;1.83;;
22363;SDS011;11349;53.412;-1.328;2022-10-26T13:29:29;10.93;;;2.38;;
22363;SDS011;11349;53.412;-1.328;2022-10-26T13:31:56;8.77;;;1.85;;
22363;SDS011;11349;53.412;-1.328;2022-10-26T13:34:23;9.70;;;2.47;;
22363;SDS011;11349;53.412;-1.328;2022-10-26T13:37:05;8.77;;;1.70;;
22363;SDS011;11349;53.412;-1.328;2022-10-26T13:39:47;9.80;;;1.48;;
22363;SDS011;11349;53.412;-1.328;2022-10-26T13:42:17;9.02;;;1.88;;
22363;SDS011;11349;53.412;-1.328;2022-10-26T13:49:54;8.85;;;1.70;;
22363;SDS011;11349;53.412;-1.328;2022-10-26T13:52:30;8.90;;;1.83;;
22363;SDS011;11349;53.412;-1.328;2022-10-26T13:55:19;9.35;;;2.40;;
22363;SDS011;11349;53.412;-1.328;2022-10-26T14:03:39;15.35;;;2.72;;
22363;SDS011;11349;53.412;-1.328;2022-10-26T14:06:06;7.70;;;1.42;;
22363;SDS011;11349;53.412;-1.328;2022-10-26T14:08:35;11.90;;;2.10;;
22363;SDS011;11349;53.412;-1.328;2022-10-26T14:11:04;8.98;;;1.90;;
22363;SDS011;11349;53.412;-1.328;2022-10-26T14:13:29;11.20;;;2.80;;
22363;SDS011;11349;53.412;-1.328;2022-10-26T14:15:58;9.32;;;2.03;;
22363;SDS011;11349;53.412;-1.328;2022-10-26T14:18:25;9.25;;;2.22;;
22363;SDS011;11349;53.412;-1.328;2022-10-26T14:23:36;7.50;;;1.60;;
22363;SDS011;11349;53.412;-1.328;2022-10-26T14:26:17;9.57;;;2.10;;
22363;SDS011;11349;53.412;-1.328;2022-10-26T14:28:47;6.05;;;1.92;;
22363;SDS011;11349;53.412;-1.328;2022-10-26T14:31:23;11.73;;;1.92;;
22363;SDS011;11349;53.412;-1.328;2022-10-26T14:33:51;9.88;;;1.95;;
22363;SDS011;11349;53.412;-1.328;2022-10-26T14:36:19;7.40;;;1.90;;
22363;SDS011;11349;53.412;-1.328;2022-10-26T14:39:07;8.15;;;1.90;;
22363;SDS011;11349;53.412;-1.328;2022-10-26T14:41:47;8.57;;;2.22;;
22363;SDS011;11349;53.412;-1.328;2022-10-26T14:44:18;8.63;;;1.60;;
22363;SDS011;11349;53.412;-1.328;2022-10-26T14:46:47;11.77;;;2.83;;
22363;SDS011;11349;53.412;-1.328;2022-10-26T14:49:17;11.25;;;2.38;;
22363;SDS011;11349;53.412;-1.328;2022-10-26T14:51:49;13.95;;;1.90;;
22363;SDS011;11349;53.412;-1.328;2022-10-26T14:54:27;9.07;;;1.90;;
22363;SDS011;11349;53.412;-1.328;2022-10-26T14:56:55;11.15;;;2.55;;
22363;SDS011;11349;53.412;-1.328;2022-10-26T15:01:54;9.70;;;1.65;;
22363;SDS011;11349;53.412;-1.328;2022-10-26T15:04:30;7.50;;;1.75;;
22363;SDS011;11349;53.412;-1.328;2022-10-26T15:09:57;9.70;;;2.00;;
22363;SDS011;11349;53.412;-1.328;2022-10-26T15:14:53;8.32;;;2.05;;
22363;SDS011;11349;53.412;-1.328;2022-10-26T15:17:35;10.93;;;2.38;;
22363;SDS011;11349;53.412;-1.328;2022-10-26T15:20:04;11.65;;;2.15;;
22363;SDS011;11349;53.412;-1.328;2022-10-26T15:22:32;10.50;;;2.38;;
22363;SDS011;11349;53.412;-1.328;2022-10-26T15:25:00;10.65;;;2.30;;
22363;SDS011;11349;53.412;-1.328;2022-10-26T15:27:28;11.20;;;1.90;;
22363;SDS011;11349;53.412;-1.328;2022-10-26T15:30:07;11.00;;;2.05;;
22363;SDS011;11349;53.412;-1.328;2022-10-26T15:32:48;12.20;;;3.15;;
22363;SDS011;11349;53.412;-1.328;2022-10-26T15:37:43;9.88;;;1.85;;
22363;SDS011;11349;53.412;-1.328;2022-10-26T15:40:10;14.55;;;2.15;;
22363;SDS011;11349;53.412;-1.328;2022-10-26T15:42:36;10.38;;;2.20;;
22363;SDS011;11349;53.412;-1.328;2022-10-26T15:45:12;12.35;;;2.40;;
22363;SDS011;11349;53.412;-1.328;2022-10-26T15:47:45;14.68;;;2.83;;
22363;SDS011;11349;53.412;-1.328;2022-10-26T15:50:21;10.93;;;2.30;;
22363;SDS011;11349;53.412;-1.328;2022-10-26T15:52:54;13.20;;;2.75;;
22363;SDS011;11349;53.412;-1.328;2022-10-26T15:55:23;11.07;;;2.42;;
22363;SDS011;11349;53.412;-1.328;2022-10-26T15:57:49;17.25;;;3.22;;
22363;SDS011;11349;53.412;-1.328;2022-10-26T16:00:15;9.63;;;2.30;;
22363;SDS011;11349;53.412;-1.328;2022-10-26T16:02:42;9.73;;;2.15;;
22363;SDS011;11349;53.412;-1.328;2022-10-26T16:05:09;9.60;;;2.97;;
22363;SDS011;11349;53.412;-1.328;2022-10-26T16:07:40;16.20;;;2.70;;
22363;SDS011;11349;53.412;-1.328;2022-10-26T16:10:17;8.93;;;2.67;;
22363;SDS011;11349;53.412;-1.328;2022-10-26T16:12:46;11.10;;;2.25;;
22363;SDS011;11349;53.412;-1.328;2022-10-26T16:15:14;9.35;;;2.10;;
22363;SDS011;11349;53.412;-1.328;2022-10-26T16:17:45;10.57;;;2.45;;
22363;SDS011;11349;53.412;-1.328;2022-10-26T16:20:15;14.38;;;3.42;;
22363;SDS011;11349;53.412;-1.328;2022-10-26T16:22:47;11.30;;;2.83;;
22363;SDS011;11349;53.412;-1.328;2022-10-26T16:25:17;9.07;;;2.47;;
22363;SDS011;11349;53.412;-1.328;2022-10-26T16:27:52;7.28;;;2.00;;
22363;SDS011;11349;53.412;-1.328;2022-10-26T16:30:19;10.38;;;2.80;;
22363;SDS011;11349;53.412;-1.328;2022-10-26T16:32:45;15.50;;;3.35;;
22363;SDS011;11349;53.412;-1.328;2022-10-26T16:35:11;12.38;;;2.85;;
22363;SDS011;11349;53.412;-1.328;2022-10-26T16:37:39;12.07;;;2.35;;
22363;SDS011;11349;53.412;-1.328;2022-10-26T16:40:05;12.07;;;2.30;;
22363;SDS011;11349;53.412;-1.328;2022-10-26T16:42:32;13.05;;;2.70;;
22363;SDS011;11349;53.412;-1.328;2022-10-26T16:44:58;12.27;;;2.47;;
22363;SDS011;11349;53.412;-1.328;2022-10-26T16:47:24;9.27;;;2.28;;
22363;SDS011;11349;53.412;-1.328;2022-10-26T16:49:50;10.18;;;2.97;;
22363;SDS011;11349;53.412;-1.328;2022-10-26T16:52:16;12.48;;;2.45;;
22363;SDS011;11349;53.412;-1.328;2022-10-26T16:54:42;12.40;;;2.25;;
22363;SDS011;11349;53.412;-1.328;2022-10-26T16:57:08;10.18;;;2.72;;
22363;SDS011;11349;53.412;-1.328;2022-10-26T16:59:35;10.38;;;2.92;;
22363;SDS011;11349;53.412;-1.328;2022-10-26T17:02:01;12.35;;;2.88;;
22363;SDS011;11349;53.412;-1.328;2022-10-26T17:04:26;9.05;;;2.30;;
22363;SDS011;11349;53.412;-1.328;2022-10-26T17:06:52;11.13;;;2.50;;
22363;SDS011;11349;53.412;-1.328;2022-10-26T17:09:18;12.50;;;3.05;;
22363;SDS011;11349;53.412;-1.328;2022-10-26T17:11:43;13.02;;;2.60;;
22363;SDS011;11349;53.412;-1.328;2022-10-26T17:14:09;10.13;;;2.53;;
22363;SDS011;11349;53.412;-1.328;2022-10-26T17:16:35;12.57;;;2.90;;
22363;SDS011;11349;53.412;-1.328;2022-10-26T17:19:00;11.35;;;3.58;;